Time;durP1;ratioP1;P1;durP2;ratioP2;P2;SDS_P1;SDS_P2;PMS_P1;PMS_P2;Temp;Humidity;BMP_temperature;BMP_pressure;BME280_temperature;BME280_humidity;BME280_pressure;Samples;Min_cycle;Max_cycle;Signal;HPM_P1;HPM_P2
2022/02/24 00:00:35;;;;;;;7.60;2.13;;;;;;;;;;5074361;28;20125;-71
2022/02/24 00:03:01;;;;;;;6.85;2.30;;;;;;;;;;5055843;28;20111;-71
2022/02/24 00:05:27;;;;;;;8.65;2.20;;;;;;;;;;5074389;28;20112;-72
2022/02/24 00:07:53;;;;;;;7.25;2.03;;;;;;;;;;5071705;28;20103;-71
2022/02/24 00:10:20;;;;;;;9.00;2.47;;;;;;;;;;5074145;28;20074;-71
2022/02/24 00:12:46;;;;;;;8.00;2.47;;;;;;;;;;5074140;28;20023;-72
2022/02/24 00:15:12;;;;;;;9.55;2.25;;;;;;;;;;5074266;28;20060;-72
2022/02/24 00:17:39;;;;;;;7.18;2.13;;;;;;;;;;5073806;28;20122;-72
2022/02/24 00:20:05;;;;;;;8.82;2.25;;;;;;;;;;5055900;28;20089;-72
2022/02/24 00:22:32;;;;;;;9.27;2.15;;;;;;;;;;5072987;28;20031;-70
2022/02/24 00:24:58;;;;;;;5.60;2.05;;;;;;;;;;5073609;28;20166;-71
2022/02/24 00:27:24;;;;;;;8.52;2.03;;;;;;;;;;5055788;28;20021;-71
2022/02/24 00:29:50;;;;;;;6.40;2.38;;;;;;;;;;5073531;28;20368;-72
2022/02/24 00:32:16;;;;;;;11.15;2.63;;;;;;;;;;5073485;28;20029;-69
2022/02/24 00:34:42;;;;;;;6.57;1.90;;;;;;;;;;5073534;28;20020;-71
2022/02/24 00:37:08;;;;;;;11.60;2.42;;;;;;;;;;5073516;28;20036;-71
2022/02/24 00:39:34;;;;;;;6.38;2.20;;;;;;;;;;5055373;28;20033;-71
2022/02/24 00:42:00;;;;;;;6.75;2.03;;;;;;;;;;5054842;28;20422;-71
2022/02/24 00:44:26;;;;;;;10.90;2.38;;;;;;;;;;5073253;28;20032;-73
2022/02/24 00:46:52;;;;;;;10.15;2.40;;;;;;;;;;5073587;28;20024;-70
2022/02/24 00:49:20;;;;;;;7.35;2.30;;;;;;;;;;5073093;28;20035;-71
2022/02/24 00:51:46;;;;;;;6.30;1.88;;;;;;;;;;5072991;28;20103;-71
2022/02/24 00:54:13;;;;;;;8.73;2.13;;;;;;;;;;5073068;28;20116;-72
2022/02/24 00:56:39;;;;;;;11.05;2.20;;;;;;;;;;5072453;28;20368;-71
2022/02/24 00:59:05;;;;;;;7.90;2.55;;;;;;;;;;5072723;28;20036;-71
2022/02/24 01:01:32;;;;;;;7.68;2.25;;;;;;;;;;5072772;28;20052;-71
2022/02/24 01:03:58;;;;;;;9.52;2.33;;;;;;;;;;5072732;28;20020;-72
2022/02/24 01:06:24;;;;;;;8.07;1.77;;;;;;;;;;5054965;28;20027;-72
2022/02/24 01:08:50;;;;;;;11.32;2.33;;;;;;;;;;5072967;28;20474;-71
2022/02/24 01:11:16;;;;;;;8.18;2.13;;;;;;;;;;5072648;28;20029;-71
2022/02/24 01:13:42;;;;;;;8.73;2.15;;;;;;;;;;5072458;28;20028;-72
2022/02/24 01:16:08;;;;;;;10.93;2.55;;;;;;;;;;5072925;28;20052;-71
2022/02/24 01:18:34;;;;;;;9.05;2.40;;;;;;;;;;5054452;28;20040;-70
2022/02/24 01:21:00;;;;;;;9.70;2.28;;;;;;;;;;5072731;28;20367;-70
2022/02/24 01:23:26;;;;;;;5.18;1.92;;;;;;;;;;5072302;28;20422;-71
2022/02/24 01:25:52;;;;;;;11.98;2.33;;;;;;;;;;5071947;28;20062;-71
2022/02/24 01:28:18;;;;;;;8.85;2.30;;;;;;;;;;5072657;28;20029;-71
2022/02/24 01:30:44;;;;;;;7.00;2.22;;;;;;;;;;5072568;28;20047;-72
2022/02/24 01:33:10;;;;;;;12.20;2.58;;;;;;;;;;5054688;28;20448;-71
2022/02/24 01:35:36;;;;;;;8.68;2.05;;;;;;;;;;5073081;28;20066;-71
2022/02/24 01:38:02;;;;;;;9.98;2.20;;;;;;;;;;5072530;28;20032;-72
2022/02/24 01:40:28;;;;;;;6.18;2.00;;;;;;;;;;5070124;28;20058;-72
2022/02/24 01:42:54;;;;;;;13.95;2.28;;;;;;;;;;5064365;28;20021;-71
2022/02/24 01:45:20;;;;;;;8.55;2.28;;;;;;;;;;5054483;28;20437;-72
2022/02/24 01:47:46;;;;;;;8.50;2.25;;;;;;;;;;5072928;28;20024;-70
2022/02/24 01:50:13;;;;;;;9.75;2.40;;;;;;;;;;5072302;28;20032;-71
2022/02/24 01:52:39;;;;;;;8.45;1.85;;;;;;;;;;5072858;28;20555;-71
2022/02/24 01:55:06;;;;;;;7.07;1.90;;;;;;;;;;5072575;28;20082;-71
2022/02/24 01:57:32;;;;;;;13.02;2.70;;;;;;;;;;5054454;28;20070;-72
2022/02/24 01:59:58;;;;;;;7.88;1.77;;;;;;;;;;5072342;28;20044;-70
2022/02/24 02:02:24;;;;;;;8.40;1.92;;;;;;;;;;5071910;28;20394;-72
2022/02/24 02:04:50;;;;;;;6.68;2.25;;;;;;;;;;5072071;28;20058;-71
2022/02/24 02:07:16;;;;;;;7.65;2.20;;;;;;;;;;5072147;28;20427;-70
2022/02/24 02:09:42;;;;;;;10.57;2.20;;;;;;;;;;5072127;28;20092;-71
2022/02/24 02:12:09;;;;;;;8.77;1.95;;;;;;;;;;5071403;28;20533;-71
2022/02/24 02:14:38;;;;;;;8.70;2.10;;;;;;;;;;5072505;28;20029;-71
2022/02/24 02:17:04;;;;;;;8.63;2.20;;;;;;;;;;5071879;28;20479;-72
2022/02/24 02:19:30;;;;;;;6.95;2.63;;;;;;;;;;5071608;28;20110;-69
2022/02/24 02:21:56;;;;;;;7.47;2.42;;;;;;;;;;5071703;28;20031;-71
2022/02/24 02:24:22;;;;;;;6.82;2.35;;;;;;;;;;5071616;28;20111;-69
2022/02/24 02:26:49;;;;;;;11.35;2.10;;;;;;;;;;5072234;28;20528;-70
2022/02/24 02:29:16;;;;;;;10.90;2.75;;;;;;;;;;5071164;28;20032;-71
2022/02/24 02:31:42;;;;;;;10.73;2.58;;;;;;;;;;5072246;28;20094;-72
2022/02/24 02:34:09;;;;;;;6.30;1.92;;;;;;;;;;5054258;28;20387;-72
2022/02/24 02:36:36;;;;;;;13.32;2.50;;;;;;;;;;5054280;28;20021;-68
2022/02/24 02:39:02;;;;;;;10.98;2.05;;;;;;;;;;5071614;28;20066;-68
2022/02/24 02:41:29;;;;;;;28.30;2.47;;;;;;;;;;5071200;28;20028;-68
2022/02/24 02:43:55;;;;;;;17.00;2.55;;;;;;;;;;5052778;28;20050;-68
2022/02/24 02:46:21;;;;;;;11.25;2.40;;;;;;;;;;5052179;28;20082;-68
2022/02/24 02:48:47;;;;;;;13.45;2.47;;;;;;;;;;5071115;28;20025;-68
2022/02/24 02:51:13;;;;;;;13.38;2.63;;;;;;;;;;5071045;28;20037;-67
2022/02/24 02:53:39;;;;;;;13.15;1.83;;;;;;;;;;5071299;28;20037;-67
2022/02/24 02:56:05;;;;;;;17.98;2.20;;;;;;;;;;5071148;28;20032;-67
2022/02/24 02:58:31;;;;;;;14.25;2.35;;;;;;;;;;5071106;28;20031;-68
2022/02/24 03:00:57;;;;;;;11.15;2.15;;;;;;;;;;5070717;28;20028;-68
2022/02/24 03:03:24;;;;;;;12.63;2.75;;;;;;;;;;5070888;28;20058;-68
2022/02/24 03:05:51;;;;;;;7.85;1.70;;;;;;;;;;5074903;28;20140;-68
2022/02/24 03:08:17;;;;;;;7.53;1.95;;;;;;;;;;5074962;28;20371;-68
2022/02/24 03:10:43;;;;;;;7.70;1.92;;;;;;;;;;5074983;28;20036;-68
2022/02/24 03:13:09;;;;;;;15.60;2.58;;;;;;;;;;5075001;28;20036;-68
2022/02/24 03:15:35;;;;;;;6.93;2.20;;;;;;;;;;5056968;28;20364;-67
2022/02/24 03:18:01;;;;;;;8.48;1.92;;;;;;;;;;5074414;28;20048;-67
2022/02/24 03:20:32;;;;;;;3.55;1.60;;;;;;;;;;5074628;28;20035;-68
2022/02/24 03:22:58;;;;;;;16.90;2.05;;;;;;;;;;5074756;28;20021;-68
2022/02/24 03:25:24;;;;;;;7.43;1.88;;;;;;;;;;5074332;28;20024;-67
2022/02/24 03:27:50;;;;;;;9.32;1.92;;;;;;;;;;5074559;28;20044;-67
2022/02/24 03:30:17;;;;;;;10.10;2.20;;;;;;;;;;5073530;28;20029;-67
2022/02/24 03:32:45;;;;;;;12.25;1.92;;;;;;;;;;5077735;28;20389;-68
2022/02/24 03:35:11;;;;;;;7.30;2.20;;;;;;;;;;5074488;28;20569;-67
2022/02/24 03:37:37;;;;;;;6.35;1.90;;;;;;;;;;5074453;28;20135;-68
2022/02/24 03:40:04;;;;;;;7.45;2.17;;;;;;;;;;5074360;28;20044;-68
2022/02/24 03:42:30;;;;;;;5.97;1.65;;;;;;;;;;5073995;28;20027;-70
2022/02/24 03:44:56;;;;;;;7.28;1.83;;;;;;;;;;5074402;28;20397;-69
2022/02/24 03:47:23;;;;;;;6.38;1.98;;;;;;;;;;5074264;28;20108;-67
2022/02/24 03:49:49;;;;;;;6.68;1.80;;;;;;;;;;5074217;28;20032;-68
2022/02/24 03:52:15;;;;;;;5.88;1.60;;;;;;;;;;5073890;28;20025;-68
2022/02/24 03:54:42;;;;;;;4.65;1.70;;;;;;;;;;5074223;28;20036;-68
2022/02/24 03:57:08;;;;;;;6.28;2.10;;;;;;;;;;5073982;28;20464;-68
2022/02/24 03:59:34;;;;;;;6.00;1.75;;;;;;;;;;5073623;28;20437;-69
2022/02/24 04:02:00;;;;;;;4.88;1.58;;;;;;;;;;5072569;28;20028;-68
2022/02/24 04:04:26;;;;;;;5.95;1.95;;;;;;;;;;5074049;28;20115;-68
2022/02/24 04:06:52;;;;;;;6.13;1.90;;;;;;;;;;5074195;28;20025;-68
2022/02/24 04:09:18;;;;;;;5.65;1.77;;;;;;;;;;5074090;28;20040;-68
2022/02/24 04:11:44;;;;;;;7.70;1.77;;;;;;;;;;5073414;28;20020;-69
2022/02/24 04:14:10;;;;;;;8.80;2.20;;;;;;;;;;5073939;28;20097;-69
2022/02/24 04:16:36;;;;;;;5.90;1.65;;;;;;;;;;5073835;28;20025;-69
2022/02/24 04:19:02;;;;;;;7.47;1.83;;;;;;;;;;5073212;28;20041;-68
2022/02/24 04:21:28;;;;;;;7.15;1.55;;;;;;;;;;5073511;28;20028;-68
2022/02/24 04:23:54;;;;;;;6.15;2.10;;;;;;;;;;5073095;28;20074;-68
2022/02/24 04:26:20;;;;;;;12.82;2.28;;;;;;;;;;5073603;28;20031;-68
2022/02/24 04:28:46;;;;;;;19.58;1.80;;;;;;;;;;5073572;28;20016;-68
2022/02/24 04:31:12;;;;;;;7.18;1.90;;;;;;;;;;5072133;28;20037;-68
2022/02/24 04:33:38;;;;;;;7.07;1.70;;;;;;;;;;5076215;28;20021;-67
2022/02/24 04:36:04;;;;;;;7.10;1.88;;;;;;;;;;5055272;28;20106;-67
2022/02/24 04:38:30;;;;;;;9.23;2.50;;;;;;;;;;5073121;28;20112;-68
2022/02/24 04:40:56;;;;;;;11.00;2.33;;;;;;;;;;5054907;28;20123;-68
2022/02/24 04:43:22;;;;;;;5.93;1.75;;;;;;;;;;5072737;28;20541;-68
2022/02/24 04:45:50;;;;;;;5.72;1.48;;;;;;;;;;5073008;28;20104;-68
2022/02/24 04:48:16;;;;;;;7.45;1.75;;;;;;;;;;5071932;28;20451;-69
2022/02/24 04:50:42;;;;;;;7.30;2.00;;;;;;;;;;5072932;28;20629;-69
2022/02/24 04:53:08;;;;;;;4.90;1.52;;;;;;;;;;5073006;28;20081;-68
2022/02/24 04:55:34;;;;;;;10.43;2.05;;;;;;;;;;5073108;28;20756;-68
2022/02/24 04:58:00;;;;;;;5.28;1.75;;;;;;;;;;5072838;28;20044;-69
2022/02/24 05:00:25;;;;;;;5.78;1.83;;;;;;;;;;5072784;28;20028;-69
2022/02/24 05:02:51;;;;;;;7.00;2.00;;;;;;;;;;5072659;28;20337;-68
2022/02/24 05:05:17;;;;;;;6.95;1.80;;;;;;;;;;5072692;28;20053;-67
2022/02/24 05:07:43;;;;;;;5.95;1.63;;;;;;;;;;5072930;28;20025;-69
2022/02/24 05:10:09;;;;;;;6.15;1.60;;;;;;;;;;5072585;28;20463;-69
2022/02/24 05:12:35;;;;;;;8.07;1.80;;;;;;;;;;5072377;28;20016;-67
2022/02/24 05:15:01;;;;;;;9.45;1.80;;;;;;;;;;5054338;28;20044;-67
2022/02/24 05:17:27;;;;;;;5.90;1.75;;;;;;;;;;5072339;28;20472;-67
2022/02/24 05:19:53;;;;;;;5.70;1.55;;;;;;;;;;5067752;28;20116;-66
2022/02/24 05:22:19;;;;;;;5.50;2.28;;;;;;;;;;5072091;28;20016;-67
2022/02/24 05:24:45;;;;;;;7.03;1.52;;;;;;;;;;5071369;28;20029;-68
2022/02/24 05:27:11;;;;;;;6.57;2.05;;;;;;;;;;5072255;28;20035;-68
2022/02/24 05:29:37;;;;;;;8.40;2.10;;;;;;;;;;5072243;28;20029;-68
2022/02/24 05:32:04;;;;;;;5.30;1.33;;;;;;;;;;5071940;28;20044;-67
2022/02/24 05:34:30;;;;;;;6.35;1.67;;;;;;;;;;5071984;28;20123;-67
2022/02/24 05:36:56;;;;;;;5.78;1.77;;;;;;;;;;5071333;28;20442;-68
2022/02/24 05:39:22;;;;;;;5.18;1.70;;;;;;;;;;5054181;28;20459;-67
2022/02/24 05:41:48;;;;;;;8.65;2.78;;;;;;;;;;5071636;28;20055;-68
2022/02/24 05:44:14;;;;;;;10.18;1.90;;;;;;;;;;5072256;28;20643;-68
2022/02/24 05:46:40;;;;;;;6.70;1.95;;;;;;;;;;5071786;28;20020;-68
2022/02/24 05:49:06;;;;;;;8.00;1.80;;;;;;;;;;5072012;28;20054;-68
2022/02/24 05:51:32;;;;;;;4.78;1.63;;;;;;;;;;5070641;28;20183;-68
2022/02/24 05:53:58;;;;;;;4.68;1.88;;;;;;;;;;5071855;28;20085;-69
2022/02/24 05:56:24;;;;;;;6.40;1.80;;;;;;;;;;5071822;28;20016;-69
2022/02/24 05:58:50;;;;;;;5.28;1.55;;;;;;;;;;5072089;28;20545;-69
2022/02/24 06:01:16;;;;;;;4.43;1.90;;;;;;;;;;5071673;28;20028;-69
2022/02/24 06:03:42;;;;;;;5.85;1.88;;;;;;;;;;5053904;28;20388;-68
2022/02/24 06:06:08;;;;;;;6.45;1.73;;;;;;;;;;5071765;28;20021;-69
2022/02/24 06:08:34;;;;;;;8.80;1.85;;;;;;;;;;5071679;28;20036;-68
2022/02/24 06:11:01;;;;;;;4.35;1.50;;;;;;;;;;5053574;28;20040;-69
2022/02/24 06:13:28;;;;;;;8.02;2.00;;;;;;;;;;5071895;28;20070;-70
2022/02/24 06:15:53;;;;;;;8.20;1.70;;;;;;;;;;5071560;28;20029;-68
2022/02/24 06:18:20;;;;;;;7.60;1.52;;;;;;;;;;5071484;28;20404;-67
2022/02/24 06:20:46;;;;;;;6.75;1.67;;;;;;;;;;5053619;28;20429;-67
2022/02/24 06:23:12;;;;;;;5.18;1.75;;;;;;;;;;5071477;28;20468;-67
2022/02/24 06:25:38;;;;;;;5.22;1.98;;;;;;;;;;5071188;28;20082;-67
2022/02/24 06:28:04;;;;;;;3.78;1.80;;;;;;;;;;5071228;28;20025;-67
2022/02/24 06:30:30;;;;;;;8.05;1.98;;;;;;;;;;5071270;28;20028;-69
2022/02/24 06:32:56;;;;;;;6.05;2.00;;;;;;;;;;5076017;28;20040;-70
2022/02/24 06:35:22;;;;;;;6.68;1.90;;;;;;;;;;5073571;28;20107;-73
2022/02/24 06:37:48;;;;;;;20.10;2.70;;;;;;;;;;5076042;28;20028;-67
2022/02/24 06:40:15;;;;;;;19.92;1.95;;;;;;;;;;5075418;28;20535;-68
2022/02/24 06:42:41;;;;;;;23.77;2.38;;;;;;;;;;5074375;28;20024;-69
2022/02/24 06:45:07;;;;;;;29.52;2.65;;;;;;;;;;5075650;28;20036;-69
2022/02/24 06:47:34;;;;;;;30.25;2.97;;;;;;;;;;5075905;28;20028;-71
2022/02/24 06:50:00;;;;;;;27.85;3.08;;;;;;;;;;5075962;28;20024;-68
2022/02/24 06:52:31;;;;;;;34.75;3.33;;;;;;;;;;5074926;28;20089;-71
2022/02/24 06:54:57;;;;;;;25.83;2.50;;;;;;;;;;5074975;28;20021;-68
2022/02/24 06:57:23;;;;;;;15.30;2.35;;;;;;;;;;5074843;28;20024;-69
2022/02/24 06:59:49;;;;;;;28.90;2.17;;;;;;;;;;5056027;28;20381;-70
2022/02/24 07:02:15;;;;;;;17.40;2.50;;;;;;;;;;5073938;28;20032;-70
2022/02/24 07:04:41;;;;;;;22.55;2.20;;;;;;;;;;5057199;28;20032;-71
2022/02/24 07:07:07;;;;;;;12.57;2.00;;;;;;;;;;5075211;28;20040;-71
2022/02/24 07:09:33;;;;;;;26.48;2.47;;;;;;;;;;5075074;28;20036;-70
2022/02/24 07:11:59;;;;;;;12.95;2.55;;;;;;;;;;5056253;28;20024;-79
2022/02/24 07:14:25;;;;;;;16.52;2.38;;;;;;;;;;5075450;28;20029;-73
2022/02/24 07:16:51;;;;;;;15.50;2.40;;;;;;;;;;5075849;28;20025;-69
2022/02/24 07:19:18;;;;;;;7.95;2.05;;;;;;;;;;5075138;28;20094;-73
2022/02/24 07:21:44;;;;;;;26.38;2.35;;;;;;;;;;5075651;28;20103;-70
2022/02/24 07:24:10;;;;;;;15.88;2.03;;;;;;;;;;5074716;28;20029;-69
2022/02/24 07:26:36;;;;;;;8.60;1.60;;;;;;;;;;5075133;28;20035;-70
2022/02/24 07:29:02;;;;;;;20.00;2.15;;;;;;;;;;5074971;28;20021;-70
2022/02/24 07:31:29;;;;;;;15.63;2.47;;;;;;;;;;5074489;28;20055;-70
2022/02/24 07:33:55;;;;;;;12.23;2.25;;;;;;;;;;5074484;28;20027;-71
2022/02/24 07:36:21;;;;;;;10.68;1.98;;;;;;;;;;5068861;28;20034;-68
2022/02/24 07:38:47;;;;;;;16.10;2.90;;;;;;;;;;5074265;28;20036;-69
2022/02/24 07:41:14;;;;;;;6.85;1.67;;;;;;;;;;5073144;28;20067;-70
2022/02/24 07:43:40;;;;;;;7.28;1.95;;;;;;;;;;5073407;28;20033;-73
2022/02/24 07:46:06;;;;;;;9.38;1.90;;;;;;;;;;5074756;28;20020;-69
2022/02/24 07:48:32;;;;;;;15.60;2.80;;;;;;;;;;5074129;28;20455;-68
2022/02/24 07:50:58;;;;;;;17.38;2.78;;;;;;;;;;5064567;28;20120;-68
2022/02/24 07:53:24;;;;;;;16.42;3.00;;;;;;;;;;5050417;28;20530;-70
2022/02/24 07:55:50;;;;;;;13.55;2.50;;;;;;;;;;5035876;28;20021;-69
2022/02/24 07:58:17;;;;;;;15.52;2.63;;;;;;;;;;5053603;28;20071;-69
2022/02/24 08:00:45;;;;;;;18.05;2.70;;;;;;;;;;5053568;28;20036;-64
2022/02/24 08:06:21;;;;;;;17.40;2.60;;;;;;;;;;5023614;28;20160;-63
2022/02/24 08:08:48;;;;;;;15.75;3.13;;;;;;;;;;5028263;28;20839;-65
2022/02/24 08:11:14;;;;;;;17.15;2.83;;;;;;;;;;5021154;28;20029;-66
2022/02/24 08:13:40;;;;;;;24.85;2.92;;;;;;;;;;5024661;28;20037;-63
2022/02/24 08:16:06;;;;;;;20.77;2.75;;;;;;;;;;5021125;28;20010;-64
2022/02/24 08:18:32;;;;;;;27.50;2.78;;;;;;;;;;5021904;28;20094;-65
2022/02/24 08:20:58;;;;;;;19.25;3.22;;;;;;;;;;5003357;28;20025;-64
2022/02/24 08:23:24;;;;;;;37.78;2.90;;;;;;;;;;5023889;28;20017;-67
2022/02/24 08:25:50;;;;;;;27.20;3.20;;;;;;;;;;5021602;28;20681;-66
2022/02/24 08:28:16;;;;;;;23.23;2.60;;;;;;;;;;5004851;28;20026;-66
2022/02/24 08:30:42;;;;;;;20.58;2.47;;;;;;;;;;5028068;28;20384;-69
2022/02/24 08:33:08;;;;;;;21.42;2.75;;;;;;;;;;5030119;28;20072;-66
2022/02/24 08:35:36;;;;;;;14.38;2.78;;;;;;;;;;5003105;28;20465;-68
2022/02/24 08:38:03;;;;;;;17.08;2.47;;;;;;;;;;5004179;28;20415;-68
2022/02/24 08:40:30;;;;;;;23.20;2.33;;;;;;;;;;4983815;28;20116;-67
2022/02/24 08:42:56;;;;;;;21.20;2.17;;;;;;;;;;5002304;28;20022;-67
2022/02/24 08:45:22;;;;;;;14.57;2.13;;;;;;;;;;5001024;28;20041;-67
2022/02/24 08:47:48;;;;;;;12.50;2.03;;;;;;;;;;5010226;28;20101;-65
2022/02/24 08:50:15;;;;;;;6.85;1.75;;;;;;;;;;5013097;28;20053;-67
2022/02/24 08:52:41;;;;;;;12.38;1.83;;;;;;;;;;5012892;28;20037;-66
2022/02/24 08:55:07;;;;;;;12.10;1.90;;;;;;;;;;5013155;28;20032;-65
2022/02/24 08:57:33;;;;;;;5.88;1.55;;;;;;;;;;5012606;28;20101;-66
2022/02/24 08:59:59;;;;;;;6.85;1.80;;;;;;;;;;5012125;28;20041;-66
2022/02/24 09:02:25;;;;;;;6.55;1.70;;;;;;;;;;5012572;28;20369;-66
2022/02/24 09:04:51;;;;;;;4.88;1.33;;;;;;;;;;5010092;28;20049;-65
2022/02/24 09:07:17;;;;;;;9.15;2.05;;;;;;;;;;5001873;28;20066;-67
2022/02/24 09:09:43;;;;;;;7.07;1.65;;;;;;;;;;5000742;28;20046;-68
2022/02/24 09:12:10;;;;;;;4.50;1.40;;;;;;;;;;5001456;28;20472;-67
2022/02/24 09:14:36;;;;;;;14.20;2.17;;;;;;;;;;5007267;28;20061;-67
2022/02/24 09:17:03;;;;;;;8.57;1.80;;;;;;;;;;5004763;28;20088;-67
2022/02/24 09:19:29;;;;;;;10.05;1.90;;;;;;;;;;5003038;28;20030;-67
2022/02/24 09:21:55;;;;;;;10.95;1.52;;;;;;;;;;5005794;28;20052;-67
2022/02/24 09:24:22;;;;;;;7.85;1.77;;;;;;;;;;4997436;28;20022;-67
2022/02/24 09:26:48;;;;;;;23.17;2.95;;;;;;;;;;5004309;28;20034;-66
2022/02/24 09:29:14;;;;;;;11.35;2.08;;;;;;;;;;5001740;28;20529;-66
2022/02/24 09:31:41;;;;;;;7.60;1.77;;;;;;;;;;4980730;28;20029;-67
2022/02/24 09:34:07;;;;;;;7.28;1.77;;;;;;;;;;5002695;28;20032;-67
2022/02/24 09:36:33;;;;;;;10.82;1.90;;;;;;;;;;4998832;28;20026;-66
2022/02/24 09:38:59;;;;;;;8.88;1.83;;;;;;;;;;5003609;28;20032;-66
2022/02/24 09:41:25;;;;;;;8.43;1.80;;;;;;;;;;5000411;28;20045;-67
2022/02/24 09:43:52;;;;;;;8.15;1.95;;;;;;;;;;5004990;28;20477;-66
2022/02/24 09:46:18;;;;;;;6.75;1.88;;;;;;;;;;5001330;28;20373;-67
2022/02/24 09:48:45;;;;;;;6.03;1.98;;;;;;;;;;5003992;28;20359;-67
2022/02/24 09:51:14;;;;;;;7.03;1.88;;;;;;;;;;4999396;28;20033;-66
2022/02/24 09:53:40;;;;;;;8.40;1.95;;;;;;;;;;5001077;28;20088;-66
2022/02/24 09:56:12;;;;;;;8.23;1.77;;;;;;;;;;4991957;28;20072;-66
2022/02/24 09:58:39;;;;;;;8.20;1.77;;;;;;;;;;5009103;28;20038;-66
2022/02/24 10:01:05;;;;;;;10.80;2.13;;;;;;;;;;5001444;28;20034;-68
2022/02/24 10:03:40;;;;;;;9.20;1.90;;;;;;;;;;5005209;28;20061;-67
2022/02/24 10:06:07;;;;;;;6.15;1.88;;;;;;;;;;4982410;28;20046;-67
2022/02/24 10:08:34;;;;;;;13.10;1.90;;;;;;;;;;5005879;28;20035;-65
2022/02/24 10:11:01;;;;;;;9.45;1.63;;;;;;;;;;5000085;28;20034;-66
2022/02/24 10:13:28;;;;;;;6.35;1.60;;;;;;;;;;5006539;28;20385;-66
2022/02/24 10:15:55;;;;;;;8.35;1.98;;;;;;;;;;5012151;28;20057;-67
2022/02/24 10:18:25;;;;;;;10.82;2.08;;;;;;;;;;5011901;28;20453;-67
2022/02/24 10:20:55;;;;;;;9.48;1.83;;;;;;;;;;5003594;28;20702;-67
2022/02/24 10:23:22;;;;;;;10.75;2.10;;;;;;;;;;5010104;28;20106;-67
2022/02/24 10:25:52;;;;;;;7.78;2.00;;;;;;;;;;5005747;28;20029;-66
2022/02/24 10:28:29;;;;;;;6.32;1.83;;;;;;;;;;5003169;28;20019;-66
2022/02/24 10:30:56;;;;;;;6.63;1.95;;;;;;;;;;5006143;28;20041;-67
2022/02/24 10:33:29;;;;;;;5.50;1.70;;;;;;;;;;4992157;28;20026;-66
2022/02/24 10:36:08;;;;;;;9.98;2.20;;;;;;;;;;5002083;28;20093;-66
2022/02/24 10:38:34;;;;;;;9.70;1.98;;;;;;;;;;5011646;28;20445;-67
2022/02/24 10:41:00;;;;;;;7.65;2.28;;;;;;;;;;5009867;28;20026;-67
2022/02/24 10:43:28;;;;;;;7.72;1.80;;;;;;;;;;5008528;28;20376;-68
2022/02/24 10:45:57;;;;;;;10.68;2.22;;;;;;;;;;4986492;28;20044;-67
2022/02/24 10:48:24;;;;;;;8.50;2.30;;;;;;;;;;5011506;28;20110;-67
2022/02/24 10:50:55;;;;;;;16.38;2.63;;;;;;;;;;5011656;28;20022;-68
2022/02/24 10:53:42;;;;;;;9.73;2.33;;;;;;;;;;5011966;28;20014;-68
2022/02/24 10:56:08;;;;;;;12.75;2.30;;;;;;;;;;4993253;28;20049;-66
2022/02/24 10:58:41;;;;;;;12.38;1.80;;;;;;;;;;4992736;28;20057;-66
2022/02/24 11:01:15;;;;;;;9.38;2.40;;;;;;;;;;5005810;28;20026;-66
2022/02/24 11:03:42;;;;;;;8.00;1.98;;;;;;;;;;4992266;28;20014;-67
2022/02/24 11:06:09;;;;;;;12.32;1.92;;;;;;;;;;4974617;28;20046;-66
2022/02/24 11:08:36;;;;;;;11.32;2.30;;;;;;;;;;4973147;28;20386;-66
2022/02/24 11:11:02;;;;;;;10.40;2.22;;;;;;;;;;4955750;28;20034;-67
2022/02/24 11:13:29;;;;;;;8.40;2.10;;;;;;;;;;4955567;28;20029;-67
2022/02/24 11:15:56;;;;;;;11.77;2.38;;;;;;;;;;4972768;28;20035;-66
2022/02/24 11:18:22;;;;;;;12.75;2.55;;;;;;;;;;4955271;28;20110;-67
2022/02/24 11:20:49;;;;;;;13.20;2.22;;;;;;;;;;4971327;28;20390;-69
2022/02/24 11:23:15;;;;;;;6.35;1.95;;;;;;;;;;4959492;28;20138;-67
2022/02/24 11:26:07;;;;;;;6.90;1.98;;;;;;;;;;4974046;28;20840;-68
2022/02/24 11:29:00;;;;;;;6.07;2.08;;;;;;;;;;4940769;28;20038;-69
2022/02/24 11:31:44;;;;;;;8.50;2.40;;;;;;;;;;4956482;28;20038;-69
2022/02/24 11:34:10;;;;;;;9.65;2.00;;;;;;;;;;4995757;28;20023;-68
2022/02/24 11:36:40;;;;;;;9.23;2.30;;;;;;;;;;4995344;28;20541;-67
2022/02/24 11:39:08;;;;;;;8.05;2.03;;;;;;;;;;4995527;28;20098;-67
2022/02/24 11:41:35;;;;;;;10.95;1.83;;;;;;;;;;4994770;28;20081;-68
2022/02/24 11:44:01;;;;;;;12.38;2.20;;;;;;;;;;4995058;28;20149;-67
2022/02/24 11:46:27;;;;;;;7.15;2.10;;;;;;;;;;4993500;28;20461;-67
2022/02/24 11:48:53;;;;;;;7.78;1.85;;;;;;;;;;4985111;28;20046;-69
2022/02/24 11:51:20;;;;;;;7.75;1.73;;;;;;;;;;4994176;28;20058;-68
2022/02/24 11:53:53;;;;;;;13.13;3.17;;;;;;;;;;4995001;28;20029;-68
2022/02/24 11:56:22;;;;;;;8.60;1.85;;;;;;;;;;4977766;28;20466;-69
2022/02/24 11:58:48;;;;;;;6.88;2.00;;;;;;;;;;4993257;28;20101;-67
2022/02/24 12:01:25;;;;;;;13.45;2.13;;;;;;;;;;5000823;28;20466;-70
2022/02/24 12:03:51;;;;;;;9.18;2.13;;;;;;;;;;5004277;28;20026;-69
2022/02/24 12:06:18;;;;;;;10.27;2.17;;;;;;;;;;4998640;28;20420;-69
2022/02/24 12:09:03;;;;;;;8.70;1.92;;;;;;;;;;4990022;28;20038;-70
2022/02/24 12:11:29;;;;;;;10.07;1.95;;;;;;;;;;4993067;28;20389;-68
2022/02/24 12:13:55;;;;;;;5.75;1.50;;;;;;;;;;4995103;28;20026;-70
2022/02/24 12:16:24;;;;;;;6.20;1.67;;;;;;;;;;4994927;28;20046;-68
2022/02/24 12:18:51;;;;;;;7.95;2.00;;;;;;;;;;4994711;28;20446;-70
2022/02/24 12:21:33;;;;;;;11.32;1.92;;;;;;;;;;4993826;28;20026;-70
2022/02/24 12:23:59;;;;;;;;;;;;;;;;;;4985347;28;20030;-70
2022/02/24 12:26:41;;;;;;;6.38;1.90;;;;;;;;;;4973124;28;19905;-69
2022/02/24 12:29:19;;;;;;;5.63;1.50;;;;;;;;;;4991461;28;20030;-68
2022/02/24 12:31:46;;;;;;;4.50;1.10;;;;;;;;;;5013799;28;20044;-70
2022/02/24 12:34:12;;;;;;;3.60;0.98;;;;;;;;;;5014073;28;20026;-70
2022/02/24 12:36:38;;;;;;;2.35;0.80;;;;;;;;;;4996714;28;20031;-68
2022/02/24 12:39:05;;;;;;;3.45;1.02;;;;;;;;;;4994047;28;20392;-69
2022/02/24 12:41:31;;;;;;;11.50;1.13;;;;;;;;;;4993131;28;20030;-69
2022/02/24 12:43:57;;;;;;;4.32;0.80;;;;;;;;;;4993695;28;20351;-67
2022/02/24 12:46:24;;;;;;;6.40;1.10;;;;;;;;;;4976780;28;20493;-69
2022/02/24 12:48:50;;;;;;;16.48;1.50;;;;;;;;;;4993935;28;20030;-68
2022/02/24 12:51:23;;;;;;;17.70;1.17;;;;;;;;;;4993111;28;20132;-68
2022/02/24 12:53:49;;;;;;;13.02;1.02;;;;;;;;;;4996652;28;20014;-69
2022/02/24 12:56:18;;;;;;;3.70;0.77;;;;;;;;;;5014098;28;20026;-68
2022/02/24 12:58:45;;;;;;;10.27;1.30;;;;;;;;;;5013506;28;20045;-68
2022/02/24 13:01:13;;;;;;;10.38;1.02;;;;;;;;;;5013538;28;20030;-69
2022/02/24 13:03:40;;;;;;;3.53;1.02;;;;;;;;;;5006394;28;20022;-67
2022/02/24 13:06:06;;;;;;;8.90;1.20;;;;;;;;;;4993940;28;20073;-68
2022/02/24 13:11:19;;;;;;;5.10;1.00;;;;;;;;;;4993880;28;20036;-69
2022/02/24 13:13:46;;;;;;;3.58;0.88;;;;;;;;;;4992608;28;20030;-68
2022/02/24 13:16:16;;;;;;;4.38;1.17;;;;;;;;;;4993694;28;20363;-68
2022/02/24 13:18:52;;;;;;;3.78;0.90;;;;;;;;;;4993694;28;20037;-68
2022/02/24 13:21:21;;;;;;;4.20;0.98;;;;;;;;;;4993567;28;20030;-68
2022/02/24 13:23:47;;;;;;;5.57;0.90;;;;;;;;;;4993484;28;20030;-69
2022/02/24 13:26:14;;;;;;;2.47;0.60;;;;;;;;;;4993479;28;20030;-68
2022/02/24 13:28:41;;;;;;;4.40;0.70;;;;;;;;;;4993240;28;20022;-68
2022/02/24 13:31:08;;;;;;;4.50;0.90;;;;;;;;;;4992371;28;20108;-69
2022/02/24 13:33:35;;;;;;;3.45;1.02;;;;;;;;;;4993428;28;20457;-68
2022/02/24 13:36:05;;;;;;;4.40;1.00;;;;;;;;;;5005393;28;20028;-68
2022/02/24 13:38:33;;;;;;;2.92;0.80;;;;;;;;;;5012855;28;20113;-68
2022/02/24 13:41:00;;;;;;;2.60;0.60;;;;;;;;;;5012822;28;20030;-69
2022/02/24 13:43:26;;;;;;;2.72;0.68;;;;;;;;;;5012922;28;20026;-68
2022/02/24 13:45:55;;;;;;;13.63;0.70;;;;;;;;;;4994797;28;20496;-68
2022/02/24 13:48:25;;;;;;;2.60;0.70;;;;;;;;;;5012826;28;20018;-68
2022/02/24 13:50:52;;;;;;;4.72;0.80;;;;;;;;;;5012544;28;20105;-69
2022/02/24 13:53:27;;;;;;;1.20;0.50;;;;;;;;;;5012882;28;20029;-70
2022/02/24 13:55:55;;;;;;;2.50;0.73;;;;;;;;;;4993021;28;20034;-69
2022/02/24 13:58:25;;;;;;;2.63;0.50;;;;;;;;;;4993130;28;20077;-68
2022/02/24 14:00:58;;;;;;;2.65;0.70;;;;;;;;;;4993091;28;20029;-69
2022/02/24 14:03:31;;;;;;;3.25;0.77;;;;;;;;;;4993155;28;20034;-69
2022/02/24 14:06:04;;;;;;;2.22;0.60;;;;;;;;;;4992832;28;20054;-68
2022/02/24 14:08:33;;;;;;;1.63;0.45;;;;;;;;;;4988961;28;20042;-68
2022/02/24 14:11:03;;;;;;;3.70;0.70;;;;;;;;;;4992699;28;20544;-67
2022/02/24 14:13:29;;;;;;;5.25;0.68;;;;;;;;;;4992883;28;20109;-68
2022/02/24 14:15:59;;;;;;;5.28;0.60;;;;;;;;;;4991541;28;20355;-68
2022/02/24 14:18:26;;;;;;;10.82;0.60;;;;;;;;;;4992505;28;20040;-68
2022/02/24 14:20:52;;;;;;;2.65;0.57;;;;;;;;;;5010450;28;20022;-68
2022/02/24 14:23:18;;;;;;;5.10;0.80;;;;;;;;;;5012606;28;20026;-69
2022/02/24 14:25:44;;;;;;;4.70;0.60;;;;;;;;;;5012219;28;20469;-69
2022/02/24 14:28:10;;;;;;;11.13;0.88;;;;;;;;;;5012506;28;20053;-68
2022/02/24 14:30:36;;;;;;;3.83;0.60;;;;;;;;;;5012033;28;20077;-69
2022/02/24 14:33:02;;;;;;;4.53;0.70;;;;;;;;;;5011775;28;20045;-70
2022/02/24 14:35:29;;;;;;;10.75;0.55;;;;;;;;;;5004556;28;20046;-69
2022/02/24 14:37:55;;;;;;;5.90;0.80;;;;;;;;;;4995789;28;20470;-70
2022/02/24 14:40:21;;;;;;;6.78;0.60;;;;;;;;;;5004214;28;20053;-70
2022/02/24 14:42:47;;;;;;;7.88;0.80;;;;;;;;;;4982834;28;20124;-70